EDDR/SCN METAR and TAF weather

Enter ICAO airport designator
Station Type Date Time Source
EDDR METAR 2020/06/06 20:50 UTC NOAA

EDDR 062050Z 24005KT CAVOK 12/07 Q1005


Station Type Date Time Source
EDDR Decoded METAR 2020/06/06 20:50 UTC NOAA

Saarbruecken / Ensheim, Germany (EDDR) 49-13N 007-07E 320M
Jun 06, 2020 - 04:50 PM EDT / 2020.06.06 2050 UTC
Wind: from the WSW (240 degrees) at 6 MPH (5 KT):0
Visibility: greater than 7 mile(s):0
Temperature: 53 F (12 C)
Dew Point: 44 F (7 C)
Relative Humidity: 71%
Pressure (altimeter): 29.68 in. Hg (1005 hPa)
ob: EDDR 062050Z 24005KT CAVOK 12/07 Q1005
cycle: 21

Station Type Date Time Source
EDDR TAF 2020/06/06 18:27 UTC NOAA

TAF EDDR 061700Z 0618/0718 24010KT 9999 FEW040
BECMG 0618/0621 22005KT
BECMG 0708/0711 27010KT

Example: see airport list